createdAt,value
2019-03-23T00:01:04.772Z,40.66
2019-03-23T00:03:34.568Z,40.85
2019-03-23T00:06:04.126Z,40.95
2019-03-23T00:08:33.692Z,40.84
2019-03-23T00:11:03.261Z,41.18
2019-03-23T00:13:32.842Z,41.45
2019-03-23T00:16:02.448Z,41.60
2019-03-23T00:18:31.941Z,41.69
2019-03-23T00:21:01.517Z,41.77
2019-03-23T00:23:31.013Z,41.99
2019-03-23T00:26:00.616Z,42.13
2019-03-23T00:28:30.187Z,42.33
2019-03-23T00:30:59.755Z,42.43
2019-03-23T00:33:29.445Z,42.46
2019-03-23T00:35:59.014Z,42.38
2019-03-23T00:38:28.660Z,42.18
2019-03-23T00:40:58.247Z,42.32
2019-03-23T00:43:27.733Z,42.44
2019-03-23T00:45:57.367Z,42.46
2019-03-23T00:48:26.993Z,42.42
2019-03-23T00:50:56.462Z,42.28
2019-03-23T00:53:25.934Z,41.98
2019-03-23T00:55:55.446Z,42.21
2019-03-23T00:58:25.062Z,42.30
2019-03-23T01:00:54.500Z,42.41
2019-03-23T01:03:24.018Z,42.45
2019-03-23T01:05:53.630Z,42.59
2019-03-23T01:08:23.261Z,42.80
2019-03-23T01:10:52.836Z,43.00
2019-03-23T01:13:22.340Z,43.06
2019-03-23T01:15:51.893Z,43.05
2019-03-23T01:18:21.384Z,43.16
2019-03-23T01:20:50.905Z,43.28
2019-03-23T01:23:20.468Z,43.35
2019-03-23T01:25:50.005Z,43.42
2019-03-23T01:28:19.554Z,43.46
2019-03-23T01:30:49.063Z,43.53
2019-03-23T01:33:18.848Z,43.64
2019-03-23T01:35:48.459Z,43.76
2019-03-23T01:38:18.071Z,43.89
2019-03-23T01:40:47.662Z,43.98
2019-03-23T01:43:18.590Z,44.18
2019-03-23T01:45:48.184Z,44.38
2019-03-23T01:48:17.815Z,44.35
2019-03-23T01:50:47.524Z,44.44
2019-03-23T01:53:18.340Z,44.59
2019-03-23T01:55:47.987Z,44.74
2019-03-23T01:58:17.640Z,44.83
2019-03-23T02:00:47.312Z,44.96
2019-03-23T02:03:18.831Z,44.99
2019-03-23T02:05:48.784Z,44.92
2019-03-23T02:08:18.455Z,45.02
2019-03-23T02:10:48.132Z,45.01
2019-03-23T02:13:18.306Z,45.13
2019-03-23T02:15:47.911Z,45.25
2019-03-23T02:18:17.582Z,45.39
2019-03-23T02:20:47.281Z,45.48
2019-03-23T02:23:16.988Z,45.51
2019-03-23T02:25:46.600Z,45.58
2019-03-23T02:28:16.248Z,45.66
2019-03-23T02:30:45.895Z,45.76
2019-03-23T02:33:15.514Z,45.85
2019-03-23T02:35:45.152Z,45.91
2019-03-23T02:38:14.871Z,45.95
2019-03-23T02:40:44.577Z,46.00
2019-03-23T02:43:14.247Z,46.07
2019-03-23T02:45:43.918Z,46.17
2019-03-23T02:48:13.627Z,46.22
2019-03-23T02:50:43.257Z,46.26
2019-03-23T02:53:13.021Z,46.38
2019-03-23T02:55:42.658Z,46.57
2019-03-23T02:58:12.357Z,46.69
2019-03-23T03:00:42.083Z,46.86
2019-03-23T03:03:11.819Z,47.28
2019-03-23T03:05:41.532Z,47.53
2019-03-23T03:08:11.200Z,47.91
2019-03-23T03:10:41.134Z,48.23
2019-03-23T03:13:10.757Z,48.68
2019-03-23T03:15:40.430Z,48.89
2019-03-23T03:18:10.083Z,49.20
2019-03-23T03:20:39.856Z,49.49
2019-03-23T03:23:09.460Z,49.78
2019-03-23T03:25:39.117Z,50.00
2019-03-23T03:28:08.771Z,50.17
2019-03-23T03:30:38.444Z,50.38
2019-03-23T03:33:08.047Z,50.68
2019-03-23T03:35:37.684Z,50.87
2019-03-23T03:38:07.294Z,51.01
2019-03-23T03:40:36.889Z,51.30
2019-03-23T03:43:06.475Z,51.48
2019-03-23T03:45:36.156Z,51.57
2019-03-23T03:48:05.795Z,51.63
2019-03-23T03:50:35.467Z,51.72
2019-03-23T03:53:05.079Z,51.96
2019-03-23T03:55:34.732Z,51.83
2019-03-23T03:58:04.351Z,52.05
2019-03-23T04:00:34.005Z,52.08
2019-03-23T04:03:03.603Z,52.10
2019-03-23T04:05:33.299Z,52.16
2019-03-23T04:08:11.195Z,52.19
2019-03-23T04:10:34.276Z,52.29
2019-03-23T04:13:03.918Z,52.41
2019-03-23T04:15:33.621Z,52.44
2019-03-23T04:18:03.377Z,52.54
2019-03-23T04:20:33.036Z,52.55
2019-03-23T04:23:02.658Z,52.59
2019-03-23T04:25:32.323Z,52.55
2019-03-23T04:28:01.965Z,52.63
2019-03-23T04:30:31.625Z,52.71
2019-03-23T04:33:01.263Z,52.71
2019-03-23T04:35:30.885Z,52.78
2019-03-23T04:38:00.538Z,52.83
2019-03-23T04:40:30.245Z,52.82
2019-03-23T04:42:59.909Z,52.86
2019-03-23T04:45:29.595Z,52.86
2019-03-23T04:47:59.204Z,52.86
2019-03-23T04:50:28.855Z,52.89
2019-03-23T04:52:58.498Z,52.85
2019-03-23T04:55:28.397Z,52.94
2019-03-23T04:57:58.037Z,53.08
2019-03-23T05:00:27.749Z,53.13
2019-03-23T05:02:57.383Z,53.17
2019-03-23T05:05:27.132Z,53.21
2019-03-23T05:07:56.775Z,53.18
2019-03-23T05:10:26.562Z,53.13
2019-03-23T05:12:56.237Z,53.18
2019-03-23T05:15:26.014Z,53.35
2019-03-23T05:17:55.664Z,53.34
2019-03-23T05:20:29.868Z,53.36
2019-03-23T05:22:59.703Z,53.43
2019-03-23T05:25:29.470Z,53.56
2019-03-23T05:27:59.234Z,53.65
2019-03-23T05:30:29.142Z,53.72
2019-03-23T05:32:58.839Z,53.74
2019-03-23T05:35:28.567Z,53.77
2019-03-23T05:37:58.187Z,53.84
2019-03-23T05:40:27.939Z,53.84
2019-03-23T05:42:57.623Z,53.80
2019-03-23T05:45:27.291Z,53.65
2019-03-23T05:47:56.913Z,53.66
2019-03-23T05:50:26.660Z,53.71
2019-03-23T05:52:56.361Z,53.73
2019-03-23T05:55:26.038Z,53.76
2019-03-23T05:57:55.688Z,53.88
2019-03-23T06:00:25.356Z,53.92
2019-03-23T06:02:55.037Z,53.87
2019-03-23T06:05:24.855Z,53.80
2019-03-23T06:07:54.516Z,53.69
2019-03-23T06:10:24.114Z,53.57
2019-03-23T06:12:53.783Z,53.42
2019-03-23T06:15:23.397Z,53.34
2019-03-23T06:17:53.151Z,53.40
2019-03-23T06:20:22.774Z,53.42
2019-03-23T06:22:52.451Z,53.45
2019-03-23T06:25:22.150Z,53.35
2019-03-23T06:27:51.774Z,53.24
2019-03-23T06:30:21.391Z,53.13
2019-03-23T06:32:51.052Z,53.03
2019-03-23T06:35:20.646Z,52.90
2019-03-23T06:37:50.308Z,52.69
2019-03-23T06:40:19.908Z,52.64
2019-03-23T06:42:59.355Z,52.48
2019-03-23T06:45:20.989Z,52.45
2019-03-23T06:47:50.668Z,52.35
2019-03-23T06:50:20.341Z,52.21
2019-03-23T06:52:49.979Z,52.16
2019-03-23T06:55:19.544Z,52.15
2019-03-23T06:57:49.317Z,52.15
2019-03-23T07:00:18.984Z,52.09
2019-03-23T07:02:48.631Z,51.92
2019-03-23T07:05:18.198Z,51.74
2019-03-23T07:07:47.893Z,51.63
2019-03-23T07:10:17.477Z,51.51
2019-03-23T07:12:47.196Z,51.51
2019-03-23T07:15:20.397Z,51.42
2019-03-23T07:17:48.294Z,51.24
2019-03-23T07:20:17.932Z,51.11
2019-03-23T07:22:47.577Z,51.06
2019-03-23T07:25:17.207Z,51.04
2019-03-23T07:27:46.932Z,50.87
2019-03-23T07:30:16.685Z,50.65
2019-03-23T07:32:46.328Z,50.65
2019-03-23T07:35:16.058Z,50.54
2019-03-23T07:37:45.708Z,50.50
2019-03-23T07:40:15.322Z,50.41
2019-03-23T07:42:45.270Z,50.23
2019-03-23T07:45:14.894Z,50.28
2019-03-23T07:47:44.525Z,50.23
2019-03-23T07:50:14.363Z,49.83
2019-03-23T07:52:44.005Z,49.69
2019-03-23T07:55:16.656Z,49.53
2019-03-23T07:57:46.441Z,49.52
2019-03-23T08:00:17.867Z,49.52
2019-03-23T08:02:47.520Z,49.46
2019-03-23T08:05:17.204Z,49.35
2019-03-23T08:07:46.840Z,49.24
2019-03-23T08:10:30.262Z,49.13
2019-03-23T08:12:59.903Z,48.99
2019-03-23T08:15:29.660Z,48.87
2019-03-23T08:17:59.311Z,48.80
2019-03-23T08:20:28.920Z,48.73
2019-03-23T08:22:58.513Z,48.68
2019-03-23T08:25:28.276Z,48.50
2019-03-23T08:27:58.187Z,48.43
2019-03-23T08:30:27.820Z,48.42
2019-03-23T08:32:57.451Z,48.23
2019-03-23T08:35:27.235Z,48.20
2019-03-23T08:37:56.907Z,48.21
2019-03-23T08:40:26.559Z,48.13
2019-03-23T08:42:56.532Z,48.02
2019-03-23T08:45:26.205Z,47.94
2019-03-23T08:47:55.928Z,47.75
2019-03-23T08:50:25.622Z,47.71
2019-03-23T08:52:55.365Z,47.55
2019-03-23T08:55:25.117Z,47.25
2019-03-23T08:57:54.817Z,47.10
2019-03-23T09:00:24.484Z,46.66
2019-03-23T09:02:54.188Z,46.50
2019-03-23T09:05:24.001Z,46.43
2019-03-23T09:07:53.710Z,46.05
2019-03-23T09:10:23.421Z,45.94
2019-03-23T09:12:53.304Z,45.76
2019-03-23T09:15:23.074Z,45.67
2019-03-23T09:17:52.718Z,45.55
2019-03-23T09:20:22.419Z,45.44
2019-03-23T09:22:52.821Z,45.06
2019-03-23T09:25:22.922Z,45.04
2019-03-23T09:27:52.685Z,44.90
2019-03-23T09:30:22.401Z,44.65
2019-03-23T09:32:52.050Z,44.58
2019-03-23T09:35:21.746Z,44.27
2019-03-23T09:37:51.416Z,44.14
2019-03-23T09:40:21.110Z,44.02
2019-03-23T09:42:50.900Z,43.76
2019-03-23T09:45:20.658Z,43.57
2019-03-23T09:47:50.282Z,43.41
2019-03-23T09:50:20.041Z,43.35
2019-03-23T09:52:49.884Z,43.16
2019-03-23T09:55:19.539Z,43.03
2019-03-23T09:57:49.200Z,43.01
2019-03-23T10:00:18.883Z,42.74
2019-03-23T10:02:48.489Z,42.71
2019-03-23T10:05:19.327Z,42.53
2019-03-23T10:07:49.096Z,42.54
2019-03-23T10:10:22.079Z,42.45
2019-03-23T10:12:53.091Z,42.34
2019-03-23T10:15:22.915Z,42.29
2019-03-23T10:17:52.682Z,42.29
2019-03-23T10:20:22.375Z,42.40
2019-03-23T10:22:52.077Z,42.40
2019-03-23T10:25:21.917Z,42.51
2019-03-23T10:27:51.670Z,42.51
2019-03-23T10:30:21.379Z,42.53
2019-03-23T10:32:51.147Z,42.53
2019-03-23T10:35:20.952Z,42.56
2019-03-23T10:37:51.074Z,42.52
2019-03-23T10:40:20.770Z,42.47
2019-03-23T10:42:50.622Z,42.60
2019-03-23T10:45:20.362Z,42.53
2019-03-23T10:47:50.350Z,42.68
2019-03-23T10:50:20.100Z,42.63
2019-03-23T10:52:49.912Z,42.54
2019-03-23T10:55:19.662Z,42.61
2019-03-23T10:57:49.475Z,42.53
2019-03-23T11:00:19.298Z,42.47
2019-03-23T11:02:49.087Z,42.58
2019-03-23T11:05:18.826Z,42.52
2019-03-23T11:07:50.747Z,42.46
2019-03-23T11:10:20.457Z,42.22
2019-03-23T11:12:50.110Z,42.14
2019-03-23T11:15:20.172Z,42.36
2019-03-23T11:17:49.906Z,42.35
2019-03-23T11:20:20.281Z,42.40
2019-03-23T11:22:50.124Z,42.41
2019-03-23T11:25:19.926Z,42.38
2019-03-23T11:27:49.736Z,42.30
2019-03-23T11:30:19.487Z,42.22
2019-03-23T11:32:49.257Z,42.22
2019-03-23T11:35:19.064Z,41.84
2019-03-23T11:37:49.222Z,41.65
2019-03-23T11:40:19.345Z,41.34
2019-03-23T11:42:50.404Z,40.50
2019-03-23T11:45:20.243Z,39.87
2019-03-23T11:47:50.054Z,39.33
2019-03-23T11:50:19.723Z,38.85
2019-03-23T11:52:49.476Z,37.96
2019-03-23T11:55:19.326Z,37.59
2019-03-23T11:57:49.162Z,36.86
2019-03-23T12:00:18.936Z,36.37
2019-03-23T12:02:48.602Z,36.19
2019-03-23T12:05:18.458Z,36.19
2019-03-23T12:07:48.279Z,36.24
2019-03-23T12:10:17.921Z,36.17
2019-03-23T12:12:47.615Z,36.22
2019-03-23T12:15:17.376Z,36.33
2019-03-23T12:17:47.160Z,36.04
2019-03-23T12:20:16.900Z,35.50
2019-03-23T12:22:46.547Z,34.68
2019-03-23T12:25:16.265Z,34.51
2019-03-23T12:27:45.901Z,33.90
2019-03-23T12:30:16.158Z,33.45
2019-03-23T12:32:45.749Z,32.88
2019-03-23T12:35:15.497Z,32.98
2019-03-23T12:37:45.171Z,33.23
2019-03-23T12:40:15.733Z,33.48
2019-03-23T12:42:45.525Z,33.17
2019-03-23T12:45:15.263Z,33.24
2019-03-23T12:47:45.113Z,33.29
2019-03-23T12:50:14.943Z,33.52
2019-03-23T12:52:44.856Z,33.59
2019-03-23T12:55:14.525Z,33.87
2019-03-23T12:57:44.179Z,34.00
2019-03-23T13:00:14.151Z,34.22
2019-03-23T13:02:43.823Z,34.73
2019-03-23T13:05:13.585Z,35.04
2019-03-23T13:07:43.241Z,35.21
2019-03-23T13:10:13.139Z,35.45
2019-03-23T13:12:42.952Z,35.55
2019-03-23T13:15:12.665Z,35.63
2019-03-23T13:17:42.328Z,35.83
2019-03-23T13:20:12.677Z,36.00
2019-03-23T13:22:42.921Z,36.02
2019-03-23T13:25:12.916Z,36.03
2019-03-23T13:27:42.999Z,35.81
2019-03-23T13:30:13.326Z,35.52
2019-03-23T13:32:42.964Z,35.15
2019-03-23T13:35:12.650Z,35.07
2019-03-23T13:37:42.258Z,34.82
2019-03-23T13:40:12.026Z,34.58
2019-03-23T13:42:41.735Z,34.68
2019-03-23T13:45:11.384Z,34.89
2019-03-23T13:47:42.775Z,35.07
2019-03-23T13:50:12.729Z,34.86
2019-03-23T13:52:49.198Z,34.81
2019-03-23T13:55:32.560Z,34.81
2019-03-23T13:58:12.326Z,34.75
2019-03-23T14:00:42.296Z,34.80
2019-03-23T14:03:11.967Z,34.75
2019-03-23T14:05:41.644Z,34.62
2019-03-23T14:08:11.270Z,34.81
2019-03-23T14:10:40.930Z,34.78
2019-03-23T14:13:10.685Z,34.89
2019-03-23T14:15:40.490Z,35.04
2019-03-23T14:18:10.185Z,35.08
2019-03-23T14:20:39.934Z,35.19
2019-03-23T14:23:09.889Z,35.20
2019-03-23T14:25:39.695Z,35.38
2019-03-23T14:28:09.544Z,35.72
2019-03-23T14:30:39.219Z,36.02
2019-03-23T14:33:08.984Z,36.24
2019-03-23T14:35:38.671Z,36.34
2019-03-23T14:38:08.307Z,36.52
2019-03-23T14:40:37.905Z,36.72
2019-03-23T14:43:07.578Z,36.90
2019-03-23T14:45:37.275Z,37.08
2019-03-23T14:48:06.894Z,37.17
2019-03-23T14:50:36.541Z,37.36
2019-03-23T14:53:07.681Z,37.55
2019-03-23T14:55:37.582Z,37.65
2019-03-23T14:58:07.294Z,37.81
2019-03-23T15:00:36.997Z,38.07
2019-03-23T15:03:06.630Z,38.17
2019-03-23T15:05:37.308Z,38.34
2019-03-23T15:08:07.407Z,38.43
2019-03-23T15:10:37.039Z,38.51
2019-03-23T15:13:06.749Z,38.65
2019-03-23T15:15:36.424Z,38.76
2019-03-23T15:18:06.193Z,39.00
2019-03-23T15:20:35.924Z,39.11
2019-03-23T15:23:05.563Z,39.23
2019-03-23T15:25:35.255Z,39.38
2019-03-23T15:28:04.954Z,39.51
2019-03-23T15:30:34.552Z,39.72
2019-03-23T15:33:04.264Z,39.88
2019-03-23T15:35:33.862Z,40.12
2019-03-23T15:38:03.580Z,40.21
2019-03-23T15:40:33.344Z,40.33
2019-03-23T15:43:03.165Z,40.40
2019-03-23T15:45:32.862Z,40.42
2019-03-23T15:48:02.554Z,40.56
2019-03-23T15:50:32.295Z,40.69
2019-03-23T15:53:02.000Z,40.79
2019-03-23T15:55:31.622Z,40.82
2019-03-23T15:58:02.384Z,40.78
2019-03-23T16:00:32.083Z,40.72
2019-03-23T16:03:02.071Z,40.89
2019-03-23T16:05:31.686Z,40.90
2019-03-23T16:08:01.357Z,40.91
2019-03-23T16:10:31.016Z,41.07
2019-03-23T16:13:00.799Z,41.07
2019-03-23T16:15:30.454Z,41.04
2019-03-23T16:18:01.668Z,41.04
2019-03-23T16:20:31.407Z,41.07
2019-03-23T16:23:01.005Z,41.22
2019-03-23T16:25:30.646Z,41.26
2019-03-23T16:28:00.267Z,41.55
2019-03-23T16:30:33.425Z,41.67
2019-03-23T16:33:03.061Z,41.84
2019-03-23T16:35:32.784Z,42.01
2019-03-23T16:38:02.417Z,42.06
2019-03-23T16:40:32.139Z,42.33
2019-03-23T16:43:01.922Z,42.51
2019-03-23T16:45:31.586Z,42.62
2019-03-23T16:48:01.437Z,42.81
2019-03-23T16:50:31.174Z,42.96
2019-03-23T16:53:00.797Z,43.39
2019-03-23T16:55:30.434Z,43.40
2019-03-23T16:58:00.141Z,43.46
2019-03-23T17:00:39.111Z,43.65
2019-03-23T17:03:08.783Z,43.71
2019-03-23T17:05:38.364Z,43.98
2019-03-23T17:08:08.104Z,44.05
2019-03-23T17:10:37.744Z,44.13
2019-03-23T17:13:07.537Z,44.26
2019-03-23T17:15:37.112Z,44.31
2019-03-23T17:18:06.818Z,44.65
2019-03-23T17:20:36.467Z,44.76
2019-03-23T17:23:06.119Z,44.79
2019-03-23T17:25:37.616Z,44.85
2019-03-23T17:28:07.209Z,44.94
2019-03-23T17:30:36.846Z,45.06
2019-03-23T17:33:08.871Z,45.06
2019-03-23T17:35:37.993Z,45.22
2019-03-23T17:38:07.666Z,45.33
2019-03-23T17:40:37.435Z,45.52
2019-03-23T17:43:07.406Z,45.55
2019-03-23T17:45:37.188Z,45.66
2019-03-23T17:48:06.853Z,45.75
2019-03-23T17:50:36.518Z,45.80
2019-03-23T17:53:06.268Z,45.90
2019-03-23T17:55:35.893Z,46.02
2019-03-23T17:58:05.770Z,46.05
2019-03-23T18:00:35.382Z,46.17
2019-03-23T18:03:05.038Z,46.23
2019-03-23T18:05:37.166Z,46.33
2019-03-23T18:08:06.807Z,46.49
2019-03-23T18:10:36.758Z,46.53
2019-03-23T18:13:16.124Z,46.67
2019-03-23T18:15:40.893Z,46.69
2019-03-23T18:18:10.521Z,46.81
2019-03-23T18:20:40.137Z,46.75
2019-03-23T18:23:09.798Z,46.88
2019-03-23T18:25:39.443Z,46.89
2019-03-23T18:28:09.115Z,46.92
2019-03-23T18:30:40.569Z,46.98
2019-03-23T18:33:10.210Z,46.97
2019-03-23T18:35:39.846Z,47.00
2019-03-23T18:38:09.739Z,47.09
2019-03-23T18:40:39.362Z,47.13
2019-03-23T18:43:10.565Z,47.18
2019-03-23T18:45:43.002Z,47.30
2019-03-23T18:48:12.627Z,47.48
2019-03-23T18:50:42.849Z,47.46
2019-03-23T18:53:12.682Z,47.45
2019-03-23T18:55:42.330Z,47.47
2019-03-23T18:58:11.935Z,47.55
2019-03-23T19:00:42.809Z,47.63
2019-03-23T19:03:12.574Z,47.76
2019-03-23T19:05:42.295Z,47.82
2019-03-23T19:08:12.165Z,47.91
2019-03-23T19:10:41.859Z,47.99
2019-03-23T19:13:11.488Z,48.10
2019-03-23T19:15:41.130Z,48.17
2019-03-23T19:18:10.788Z,48.22
2019-03-23T19:20:40.377Z,48.33
2019-03-23T19:23:10.456Z,48.35
2019-03-23T19:25:40.049Z,48.38
2019-03-23T19:28:09.980Z,48.47
2019-03-23T19:30:39.591Z,48.55
2019-03-23T19:33:09.318Z,48.62
2019-03-23T19:35:38.949Z,48.75
2019-03-23T19:38:08.634Z,48.87
2019-03-23T19:40:38.214Z,48.92
2019-03-23T19:43:07.971Z,49.17
2019-03-23T19:45:37.705Z,49.42
2019-03-23T19:48:07.462Z,49.64
2019-03-23T19:50:37.307Z,49.76
2019-03-23T19:53:06.959Z,50.07
2019-03-23T19:55:36.734Z,50.22
2019-03-23T19:58:06.467Z,50.33
2019-03-23T20:00:36.233Z,50.43
2019-03-23T20:03:06.076Z,50.58
2019-03-23T20:05:35.844Z,50.71
2019-03-23T20:08:05.484Z,50.84
2019-03-23T20:10:35.241Z,50.89
2019-03-23T20:13:05.072Z,51.10
2019-03-23T20:15:34.724Z,51.08
2019-03-23T20:18:04.454Z,51.24
2019-03-23T20:20:34.140Z,51.36
2019-03-23T20:23:03.797Z,51.84
2019-03-23T20:25:33.509Z,52.07
2019-03-23T20:28:03.199Z,52.13
2019-03-23T20:30:32.832Z,52.40
2019-03-23T20:33:03.880Z,52.61
2019-03-23T20:35:33.576Z,52.63
2019-03-23T20:38:03.247Z,52.71
2019-03-23T20:40:32.929Z,52.76
2019-03-23T20:43:05.524Z,52.72
2019-03-23T20:45:35.147Z,52.69
2019-03-23T20:48:04.869Z,52.71
2019-03-23T20:50:34.518Z,52.76
2019-03-23T20:53:04.271Z,53.08
2019-03-23T20:55:33.906Z,53.25
2019-03-23T20:58:04.601Z,53.31
2019-03-23T21:00:34.266Z,53.57
2019-03-23T21:03:04.627Z,53.53
2019-03-23T21:05:34.624Z,53.59
2019-03-23T21:08:04.560Z,53.73
2019-03-23T21:10:34.523Z,53.72
2019-03-23T21:13:04.715Z,53.69
2019-03-23T21:15:34.297Z,53.64
2019-03-23T21:18:03.949Z,53.65
2019-03-23T21:20:33.661Z,53.56
2019-03-23T21:23:04.432Z,53.55
2019-03-23T21:25:34.054Z,53.60
2019-03-23T21:28:03.733Z,53.54
2019-03-23T21:30:33.429Z,53.64
2019-03-23T21:33:03.154Z,53.63
2019-03-23T21:35:32.904Z,53.60
2019-03-23T21:38:02.663Z,53.72
2019-03-23T21:40:34.863Z,53.74
2019-03-23T21:43:06.182Z,53.73
2019-03-23T21:45:35.875Z,53.77
2019-03-23T21:48:05.544Z,53.84
2019-03-23T21:50:35.153Z,53.83
2019-03-23T21:53:06.705Z,53.90
2019-03-23T21:55:36.550Z,53.97
2019-03-23T21:58:06.242Z,54.04
2019-03-23T22:00:36.065Z,54.14
2019-03-23T22:03:05.850Z,54.50
2019-03-23T22:05:36.596Z,54.55
2019-03-23T22:08:06.811Z,54.59
2019-03-23T22:10:36.433Z,54.63
2019-03-23T22:13:06.860Z,54.66
2019-03-23T22:15:36.588Z,54.63
2019-03-23T22:18:06.203Z,54.72
2019-03-23T22:20:35.802Z,54.80
2019-03-23T22:23:06.374Z,54.95
2019-03-23T22:25:35.964Z,55.07
2019-03-23T22:28:05.630Z,55.10
2019-03-23T22:30:35.261Z,55.07
2019-03-23T22:33:05.071Z,54.98
2019-03-23T22:35:34.705Z,54.93
2019-03-23T22:38:04.402Z,54.99
2019-03-23T22:40:34.161Z,55.00
2019-03-23T22:43:03.820Z,54.91
2019-03-23T22:45:35.734Z,54.89
2019-03-23T22:48:04.909Z,54.88
2019-03-23T22:50:34.556Z,54.72
2019-03-23T22:53:05.142Z,54.89
2019-03-23T22:55:35.051Z,54.78
2019-03-23T22:58:04.748Z,54.67
2019-03-23T23:00:47.858Z,54.61
2019-03-23T23:03:17.500Z,54.53
2019-03-23T23:05:47.092Z,54.31
2019-03-23T23:08:16.667Z,54.37
2019-03-23T23:10:46.245Z,54.31
2019-03-23T23:13:15.855Z,54.20
2019-03-23T23:15:45.466Z,54.21
2019-03-23T23:18:15.148Z,54.17
2019-03-23T23:20:44.821Z,54.23
2019-03-23T23:23:14.425Z,54.34
2019-03-23T23:25:45.387Z,54.37
2019-03-23T23:28:15.494Z,54.35
2019-03-23T23:30:45.921Z,54.32
2019-03-23T23:33:15.583Z,54.23
2019-03-23T23:35:45.168Z,54.30
2019-03-23T23:38:14.835Z,54.35
2019-03-23T23:40:44.433Z,54.47
2019-03-23T23:43:14.157Z,54.35
2019-03-23T23:45:43.819Z,54.27
2019-03-23T23:48:13.486Z,54.13
2019-03-23T23:50:43.206Z,54.06
2019-03-23T23:53:12.881Z,53.95
2019-03-23T23:55:43.339Z,53.87
2019-03-23T23:58:12.979Z,53.91
